createdAt,value
2019-01-05T00:00:20.639Z,26.20
2019-01-05T00:01:26.948Z,26.20
2019-01-05T00:02:23.347Z,26.20
2019-01-05T00:03:33.336Z,26.20
2019-01-05T00:04:29.528Z,26.20
2019-01-05T00:05:23.206Z,26.20
2019-01-05T00:06:23.704Z,26.20
2019-01-05T00:07:24.021Z,26.20
2019-01-05T00:08:20.031Z,26.30
2019-01-05T00:09:14.966Z,26.30
2019-01-05T00:10:24.549Z,26.30
2019-01-05T00:11:20.775Z,26.40
2019-01-05T00:12:18.423Z,26.40
2019-01-05T00:13:34.221Z,26.40
2019-01-05T00:14:31.413Z,26.40
2019-01-05T00:15:27.216Z,26.50
2019-01-05T00:16:40.159Z,26.50
2019-01-05T00:17:42.983Z,26.50
2019-01-05T00:18:34.308Z,26.50
2019-01-05T00:19:30.952Z,26.50
2019-01-05T00:20:37.834Z,26.50
2019-01-05T00:21:44.259Z,26.50
2019-01-05T00:22:39.679Z,26.50
2019-01-05T00:23:33.547Z,26.50
2019-01-05T00:24:29.224Z,26.50
2019-01-05T00:25:26.476Z,26.60
2019-01-05T00:26:22.612Z,26.60
2019-01-05T00:27:22.444Z,26.60
2019-01-05T00:28:24.347Z,26.60
2019-01-05T00:29:27.736Z,26.60
2019-01-05T00:30:31.029Z,26.60
2019-01-05T00:31:40.451Z,26.60
2019-01-05T00:32:45.988Z,26.60
2019-01-05T00:33:43.472Z,26.60
2019-01-05T00:34:53.067Z,26.60
2019-01-05T00:36:09.290Z,26.70
2019-01-05T00:37:09.462Z,26.70
2019-01-05T00:38:06.498Z,26.70
2019-01-05T00:39:14.493Z,26.60
2019-01-05T00:40:17.312Z,26.60
2019-01-05T00:41:23.704Z,26.60
2019-01-05T00:42:24.554Z,26.60
2019-01-05T00:43:27.631Z,26.60
2019-01-05T00:44:17.771Z,26.60
2019-01-05T00:45:15.261Z,26.60
2019-01-05T00:46:12.900Z,26.60
2019-01-05T00:47:28.983Z,26.60
2019-01-05T00:48:24.930Z,26.60
2019-01-05T00:49:22.368Z,26.60
2019-01-05T00:50:31.869Z,26.60
2019-01-05T00:51:29.630Z,26.60
2019-01-05T00:52:45.186Z,26.60
2019-01-05T00:53:41.012Z,26.60
2019-01-05T00:54:51.047Z,26.60
2019-01-05T00:55:48.899Z,26.70
2019-01-05T00:56:51.907Z,26.70
2019-01-05T00:57:55.968Z,26.70
2019-01-05T00:58:53.220Z,26.70
2019-01-05T00:59:44.044Z,26.70
2019-01-05T01:00:48.019Z,26.70
2019-01-05T01:01:45.566Z,26.70
2019-01-05T01:02:43.524Z,26.70
2019-01-05T01:03:39.641Z,26.70
2019-01-05T01:04:36.158Z,26.80
2019-01-05T01:05:32.478Z,26.80
2019-01-05T01:06:28.598Z,26.80
2019-01-05T01:07:25.532Z,26.80
2019-01-05T01:08:22.981Z,26.80
2019-01-05T01:09:26.776Z,26.80
2019-01-05T01:10:42.839Z,26.80
2019-01-05T01:11:35.791Z,26.80
2019-01-05T01:12:38.872Z,26.80
2019-01-05T01:13:35.270Z,26.70
2019-01-05T01:14:32.227Z,26.70
2019-01-05T01:15:29.881Z,26.70
2019-01-05T01:16:33.676Z,26.70
2019-01-05T01:17:36.968Z,26.80
2019-01-05T01:18:34.095Z,26.80
2019-01-05T01:19:32.995Z,26.80
2019-01-05T01:20:28.573Z,26.80
2019-01-05T01:21:26.317Z,26.80
2019-01-05T01:22:19.343Z,26.80
2019-01-05T01:23:16.929Z,26.80
2019-01-05T01:24:06.487Z,26.80
2019-01-05T01:25:07.020Z,26.80
2019-01-05T01:26:06.918Z,26.80
2019-01-05T01:27:07.369Z,26.90
2019-01-05T01:28:05.176Z,26.90
2019-01-05T01:29:20.969Z,26.90
2019-01-05T01:30:16.512Z,27.00
2019-01-05T01:31:25.041Z,27.00
2019-01-05T01:32:21.597Z,27.00
2019-01-05T01:33:24.884Z,27.00
2019-01-05T01:34:25.620Z,27.00
2019-01-05T01:35:29.094Z,27.10
2019-01-05T01:36:24.599Z,27.10
2019-01-05T01:37:19.835Z,27.00
2019-01-05T01:38:50.516Z,27.00
2019-01-05T01:39:50.858Z,27.00
2019-01-05T01:40:48.250Z,27.00
2019-01-05T01:42:05.689Z,27.00
2019-01-05T01:43:03.654Z,27.00
2019-01-05T01:44:21.873Z,27.00
2019-01-05T01:45:26.281Z,27.10
2019-01-05T01:46:20.519Z,27.10
2019-01-05T01:47:20.978Z,27.10
2019-01-05T01:48:18.495Z,27.10
2019-01-05T01:49:18.731Z,27.10
2019-01-05T01:50:17.592Z,27.10
2019-01-05T01:51:15.374Z,27.10
2019-01-05T01:52:12.671Z,27.10
2019-01-05T01:53:08.413Z,27.10
2019-01-05T01:54:08.862Z,27.10
2019-01-05T01:55:06.378Z,27.20
2019-01-05T01:56:06.644Z,27.10
2019-01-05T01:57:07.316Z,27.20
2019-01-05T01:58:12.732Z,27.10
2019-01-05T01:59:09.454Z,27.20
2019-01-05T02:00:07.157Z,27.20
2019-01-05T02:01:00.001Z,27.20
2019-01-05T02:01:59.349Z,27.20
2019-01-05T02:03:05.869Z,27.20
2019-01-05T02:04:01.860Z,27.20
2019-01-05T02:04:59.787Z,27.20
2019-01-05T02:05:57.200Z,27.20
2019-01-05T02:06:44.360Z,27.30
2019-01-05T02:07:43.247Z,27.30
2019-01-05T02:08:58.929Z,27.30
2019-01-05T02:09:55.216Z,27.30
2019-01-05T02:10:50.820Z,27.30
2019-01-05T02:11:51.436Z,27.30
2019-01-05T02:12:52.370Z,27.30
2019-01-05T02:13:47.964Z,27.30
2019-01-05T02:14:51.701Z,27.30
2019-01-05T02:15:53.503Z,27.40
2019-01-05T02:16:56.687Z,27.40
2019-01-05T02:18:08.060Z,27.40
2019-01-05T02:19:57.115Z,27.40
2019-01-05T02:21:18.426Z,27.40
2019-01-05T02:23:04.407Z,27.40
2019-01-05T02:24:39.054Z,27.40
2019-01-05T02:26:16.818Z,27.40
2019-01-05T02:27:34.916Z,27.40
2019-01-05T02:28:46.883Z,27.40
2019-01-05T02:30:23.087Z,27.40
2019-01-05T02:31:56.658Z,27.40
2019-01-05T02:33:42.375Z,27.40
2019-01-05T02:35:14.525Z,27.40
2019-01-05T02:36:55.498Z,27.40
2019-01-05T02:38:23.208Z,27.50
2019-01-05T02:40:17.020Z,27.50
2019-01-05T02:42:02.899Z,27.50
2019-01-05T02:43:33.117Z,27.50
2019-01-05T02:45:22.274Z,27.60
2019-01-05T02:47:14.203Z,27.60
2019-01-05T02:48:52.685Z,27.60
2019-01-05T02:50:43.594Z,27.60
2019-01-05T02:51:58.632Z,27.70
2019-01-05T02:53:23.346Z,27.70
2019-01-05T02:54:43.968Z,27.70
2019-01-05T02:56:32.232Z,27.70
2019-01-05T02:58:09.854Z,27.70
2019-01-05T02:59:31.459Z,27.70
2019-01-05T03:01:14.455Z,27.70
2019-01-05T03:02:48.588Z,27.70
2019-01-05T03:04:30.071Z,27.80
2019-01-05T03:06:25.138Z,27.80
2019-01-05T03:08:20.054Z,27.80
2019-01-05T03:09:50.886Z,27.80
2019-01-05T03:11:22.517Z,27.80
2019-01-05T03:13:07.368Z,27.80
2019-01-05T03:42:06.086Z,28.00
2019-01-05T03:43:31.381Z,28.00
2019-01-05T03:44:53.489Z,28.00
2019-01-05T03:46:43.358Z,28.00
2019-01-05T03:48:13.216Z,28.00
2019-01-05T03:49:53.839Z,28.00
2019-01-05T03:51:35.762Z,28.00
2019-01-05T03:53:20.022Z,28.00
2019-01-05T03:55:02.708Z,28.00
2019-01-05T03:56:23.325Z,28.00
2019-01-05T03:58:13.682Z,28.00
2019-01-05T03:59:42.906Z,28.00
2019-01-05T04:01:19.090Z,28.10
2019-01-05T04:03:19.256Z,28.10
2019-01-05T04:04:59.559Z,28.10
2019-01-05T04:06:40.189Z,28.10
2019-01-05T04:08:29.151Z,28.10
2019-01-05T04:09:54.921Z,28.10
2019-01-05T04:11:45.031Z,28.10
2019-01-05T04:13:32.493Z,28.10
2019-01-05T04:14:58.960Z,28.10
2019-01-05T04:16:42.096Z,28.10
2019-01-05T04:18:38.357Z,28.10
2019-01-05T04:20:10.619Z,28.20
2019-01-05T04:21:57.763Z,28.10
2019-01-05T04:23:47.606Z,28.20
2019-01-05T04:25:12.657Z,28.20
2019-01-05T04:26:54.080Z,28.20
2019-01-05T04:28:52.974Z,28.20
2019-01-05T04:30:36.912Z,28.20
2019-01-05T04:32:04.673Z,28.30
2019-01-05T04:33:32.587Z,28.30
2019-01-05T04:35:07.971Z,28.20
2019-01-05T04:36:46.581Z,28.20
2019-01-05T04:38:37.230Z,28.20
2019-01-05T04:40:31.688Z,28.30
2019-01-05T04:42:05.485Z,28.20
2019-01-05T04:43:46.824Z,28.30
2019-01-05T04:45:15.962Z,28.30
2019-01-05T04:46:54.649Z,28.30
2019-01-05T04:48:28.658Z,28.30
2019-01-05T04:50:05.254Z,28.30
2019-01-05T04:51:31.012Z,28.40
2019-01-05T04:53:03.223Z,28.40
2019-01-05T04:54:56.990Z,28.40
2019-01-05T04:56:43.492Z,28.40
2019-01-05T04:58:37.681Z,28.40
2019-01-05T05:00:24.108Z,28.40
2019-01-05T05:02:18.181Z,28.40
2019-01-05T05:03:54.628Z,28.40
2019-01-05T05:05:31.776Z,28.40
2019-01-05T05:07:14.987Z,28.40
2019-01-05T05:09:00.222Z,28.40
2019-01-05T05:10:57.626Z,28.40
2019-01-05T05:12:33.729Z,28.40
2019-01-05T05:14:25.163Z,28.40
2019-01-05T05:16:05.879Z,28.40
2019-01-05T05:17:39.740Z,28.40
2019-01-05T05:18:52.640Z,28.50
2019-01-05T05:20:13.122Z,28.50
2019-01-05T05:22:06.374Z,28.50
2019-01-05T05:23:46.628Z,28.50
2019-01-05T05:25:07.956Z,28.50
2019-01-05T05:26:29.022Z,28.50
2019-01-05T05:28:22.549Z,28.50
2019-01-05T05:29:57.010Z,28.50
2019-01-05T05:31:28.764Z,28.50
2019-01-05T05:33:02.131Z,28.50
2019-01-05T05:34:49.627Z,28.50
2019-01-05T05:36:42.874Z,28.50
2019-01-05T05:38:24.169Z,28.50
2019-01-05T05:40:00.088Z,28.60
2019-01-05T05:41:40.833Z,28.50
2019-01-05T05:43:14.802Z,28.60
2019-01-05T05:44:48.201Z,28.60
2019-01-05T05:46:41.083Z,28.60
2019-01-05T05:48:36.497Z,28.60
2019-01-05T05:50:21.924Z,28.60
2019-01-05T05:51:52.173Z,28.60
2019-01-05T05:53:28.625Z,28.60
2019-01-05T05:55:34.961Z,28.60
2019-01-05T05:57:19.059Z,28.60
2019-01-05T05:58:42.713Z,28.60
2019-01-05T06:00:10.252Z,28.60
2019-01-05T06:01:46.348Z,28.60
2019-01-05T06:03:17.290Z,28.70
2019-01-05T06:05:14.993Z,28.70
2019-01-05T06:07:03.428Z,28.70
2019-01-05T06:08:51.478Z,28.70
2019-01-05T06:11:01.312Z,28.80
2019-01-05T06:12:36.245Z,28.80
2019-01-05T06:14:20.941Z,28.80
2019-01-05T06:15:47.009Z,28.90
2019-01-05T06:17:31.785Z,28.80
2019-01-05T06:19:18.408Z,28.90
2019-01-05T06:21:04.717Z,28.80
2019-01-05T06:22:34.937Z,28.90
2019-01-05T06:24:18.865Z,28.90
2019-01-05T06:25:43.838Z,29.00
2019-01-05T06:27:33.423Z,29.10
2019-01-05T06:29:12.779Z,29.00
2019-01-05T06:30:41.072Z,29.00
2019-01-05T06:32:14.931Z,29.10
2019-01-05T06:34:09.136Z,29.00
2019-01-05T06:35:59.653Z,29.10
2019-01-05T06:37:30.865Z,29.00
2019-01-05T06:39:15.746Z,29.00
2019-01-05T06:41:00.381Z,29.10
2019-01-05T06:42:30.081Z,29.10
2019-01-05T06:44:29.610Z,29.10
2019-01-05T06:49:25.703Z,29.10
2019-01-05T06:51:03.261Z,29.10
2019-01-05T06:53:56.819Z,29.20
2019-01-05T06:55:30.359Z,29.20
2019-01-05T06:57:19.502Z,29.10
2019-01-05T06:58:46.442Z,29.10
2019-01-05T07:00:15.609Z,29.10
2019-01-05T07:01:54.165Z,29.20
2019-01-05T07:03:16.879Z,29.10
2019-01-05T07:04:40.119Z,29.10
2019-01-05T07:06:14.995Z,29.00
2019-01-05T07:07:54.523Z,29.00
2019-01-05T07:09:25.339Z,29.00
2019-01-05T07:11:00.724Z,29.00
2019-01-05T07:12:50.393Z,29.00
2019-01-05T07:14:27.595Z,29.00
2019-01-05T07:16:03.667Z,29.10
2019-01-05T07:17:33.039Z,29.10
2019-01-05T07:18:58.182Z,29.10
2019-01-05T07:21:05.221Z,29.10
2019-01-05T07:22:57.065Z,29.10
2019-01-05T07:24:26.140Z,29.00
2019-01-05T07:26:00.710Z,29.00
2019-01-05T07:27:35.693Z,29.00
2019-01-05T07:29:06.709Z,29.00
2019-01-05T07:30:46.745Z,29.00
2019-01-05T07:32:25.541Z,29.00
2019-01-05T07:33:57.568Z,29.00
2019-01-05T07:35:16.635Z,29.00
2019-01-05T07:37:04.876Z,29.00
2019-01-05T07:38:37.106Z,29.00
2019-01-05T07:40:17.259Z,29.00
2019-01-05T07:42:08.745Z,29.00
2019-01-05T07:43:48.987Z,29.00
2019-01-05T07:45:17.189Z,29.10
2019-01-05T07:46:52.686Z,29.10
2019-01-05T07:48:22.895Z,29.10
2019-01-05T07:49:56.120Z,29.10
2019-01-05T07:51:49.230Z,29.10
2019-01-05T07:53:23.227Z,29.10
2019-01-05T07:55:04.138Z,29.10
2019-01-05T07:56:37.221Z,29.20
2019-01-05T07:58:01.387Z,29.20
2019-01-05T08:00:04.510Z,29.20
2019-01-05T08:01:47.964Z,29.20
2019-01-05T08:03:25.650Z,29.20
2019-01-05T08:05:13.883Z,29.20
2019-01-05T08:07:07.703Z,29.30
2019-01-05T08:08:40.696Z,29.40
2019-01-05T08:10:20.371Z,29.40
2019-01-05T08:12:36.708Z,29.40
2019-01-05T08:14:19.304Z,29.40
2019-01-05T08:15:39.628Z,29.40
2019-01-05T08:17:19.625Z,29.40
2019-01-05T08:18:58.326Z,29.40
2019-01-05T08:20:46.239Z,29.50
2019-01-05T08:22:51.727Z,29.40
2019-01-05T08:26:48.550Z,29.40
2019-01-05T08:28:22.720Z,29.50
2019-01-05T08:29:55.996Z,29.40
2019-01-05T08:31:25.045Z,29.40
2019-01-05T08:32:58.483Z,29.30
2019-01-05T08:34:28.442Z,29.30
2019-01-05T08:36:06.438Z,29.40
2019-01-05T08:37:55.003Z,29.40
2019-01-05T08:39:31.072Z,29.50
2019-01-05T08:40:58.679Z,29.50
2019-01-05T08:42:40.067Z,29.60
2019-01-05T08:44:14.823Z,29.60
2019-01-05T08:45:56.900Z,29.60
2019-01-05T08:47:45.783Z,29.60
2019-01-05T08:49:23.255Z,29.60
2019-01-05T08:50:58.509Z,29.50
2019-01-05T08:52:41.075Z,29.40
2019-01-05T08:54:27.412Z,29.40
2019-01-05T08:56:00.078Z,29.40
2019-01-05T08:57:36.454Z,29.40
2019-01-05T08:59:15.018Z,29.40
2019-01-05T09:01:04.327Z,29.40
2019-01-05T09:03:06.284Z,29.40
2019-01-05T09:05:03.840Z,29.40
2019-01-05T09:07:08.181Z,29.40
2019-01-05T09:08:54.756Z,29.40
2019-01-05T09:10:43.407Z,29.40
2019-01-05T09:12:28.600Z,29.50
2019-01-05T09:13:50.635Z,29.40
2019-01-05T09:15:22.149Z,29.40
2019-01-05T09:17:15.315Z,29.40
2019-01-05T09:18:53.417Z,29.50
2019-01-05T09:20:35.670Z,29.50
2019-01-05T09:22:10.368Z,29.50
2019-01-05T09:24:09.303Z,29.50
2019-01-05T09:25:56.268Z,29.50
2019-01-05T09:27:36.577Z,29.40
2019-01-05T09:29:19.370Z,29.40
2019-01-05T09:31:08.864Z,29.40
2019-01-05T09:32:42.110Z,29.40
2019-01-05T09:34:03.042Z,29.40
2019-01-05T09:35:49.786Z,29.40
2019-01-05T09:37:36.412Z,29.50
2019-01-05T09:39:03.355Z,29.50
2019-01-05T09:40:40.957Z,29.60
2019-01-05T09:42:20.259Z,29.50
2019-01-05T09:44:06.298Z,29.50
2019-01-05T09:45:53.384Z,29.50
2019-01-05T09:47:33.820Z,29.50
2019-01-05T09:48:57.190Z,29.50
2019-01-05T09:50:30.779Z,29.50
2019-01-05T09:52:16.831Z,29.50
2019-01-05T09:54:25.520Z,29.50
2019-01-05T09:56:02.951Z,29.50
2019-01-05T09:57:49.255Z,29.50
2019-01-05T09:59:55.541Z,29.50
2019-01-05T10:01:58.979Z,29.50
2019-01-05T10:03:41.276Z,29.50
2019-01-05T10:05:23.737Z,29.50
2019-01-05T10:06:57.266Z,29.50
2019-01-05T10:08:44.864Z,29.50
2019-01-05T10:10:16.129Z,29.50
2019-01-05T10:12:06.959Z,29.50
2019-01-05T10:13:51.241Z,29.50
2019-01-05T10:15:37.973Z,29.50
2019-01-05T10:17:28.845Z,29.50
2019-01-05T10:18:48.309Z,29.50
2019-01-05T10:20:21.895Z,29.50
2019-01-05T10:22:00.574Z,29.60
2019-01-05T10:23:49.876Z,29.50
2019-01-05T10:25:40.792Z,29.50
2019-01-05T10:27:14.503Z,29.50
2019-01-05T10:29:09.051Z,29.50
2019-01-05T10:31:12.775Z,29.50
2019-01-05T10:32:48.898Z,29.50
2019-01-05T10:34:08.663Z,29.50
2019-01-05T10:36:06.869Z,29.50
2019-01-05T10:37:52.522Z,29.50
2019-01-05T10:39:41.836Z,29.50
2019-01-05T10:41:20.639Z,29.50
2019-01-05T10:43:08.563Z,29.50
2019-01-05T10:44:55.628Z,29.50
2019-01-05T10:46:26.879Z,29.50
2019-01-05T10:48:02.203Z,29.50
2019-01-05T10:49:50.781Z,29.50
2019-01-05T10:51:44.101Z,29.50
2019-01-05T10:53:07.939Z,29.50
2019-01-05T10:54:38.028Z,29.50
2019-01-05T10:56:21.416Z,29.50
2019-01-05T10:57:47.461Z,29.50
2019-01-05T10:59:28.697Z,29.50
2019-01-05T11:01:07.169Z,29.50
2019-01-05T11:03:12.015Z,29.50
2019-01-05T11:04:55.197Z,29.60
2019-01-05T11:06:36.384Z,29.50
2019-01-05T11:08:10.886Z,29.50
2019-01-05T11:09:29.745Z,29.50
2019-01-05T11:11:45.946Z,29.50
2019-01-05T11:13:34.242Z,29.50
2019-01-05T11:15:24.501Z,29.50
2019-01-05T11:17:07.032Z,29.50
2019-01-05T11:18:44.935Z,29.50
2019-01-05T11:20:28.353Z,29.50
2019-01-05T11:22:05.326Z,29.50
2019-01-05T11:23:38.230Z,29.50
2019-01-05T11:25:03.199Z,29.50
2019-01-05T11:26:45.460Z,29.50
2019-01-05T11:28:24.942Z,29.50
2019-01-05T11:30:11.313Z,29.50
2019-01-05T11:32:07.873Z,29.50
2019-01-05T11:33:41.099Z,29.50
2019-01-05T11:35:43.158Z,29.50
2019-01-05T11:37:22.126Z,29.50
2019-01-05T11:38:52.765Z,29.50
2019-01-05T11:40:59.161Z,29.50
2019-01-05T11:42:45.641Z,29.50
2019-01-05T11:44:28.995Z,29.50
2019-01-05T11:46:35.590Z,29.50
2019-01-05T11:48:05.095Z,29.50
2019-01-05T11:49:28.730Z,29.40
2019-01-05T11:51:11.791Z,29.40
2019-01-05T11:52:46.887Z,29.50
2019-01-05T11:54:27.340Z,29.50
2019-01-05T11:56:08.198Z,29.50
2019-01-05T11:57:30.145Z,29.40
2019-01-05T11:59:10.104Z,29.40
2019-01-05T12:00:47.166Z,29.40
2019-01-05T12:02:31.771Z,29.40
2019-01-05T12:04:12.799Z,29.40
2019-01-05T12:05:58.947Z,29.40
2019-01-05T12:07:44.937Z,29.40
2019-01-05T12:09:14.041Z,29.40
2019-01-05T12:10:57.646Z,29.40
2019-01-05T12:12:38.493Z,29.40
2019-01-05T12:13:56.754Z,29.40
2019-01-05T12:15:42.826Z,29.40
2019-01-05T12:17:12.261Z,29.40
2019-01-05T12:18:56.198Z,29.30
2019-01-05T12:20:34.891Z,29.40
2019-01-05T12:22:27.977Z,29.30
2019-01-05T12:24:27.188Z,29.30
2019-01-05T12:26:05.734Z,29.30
2019-01-05T12:28:07.831Z,29.30
2019-01-05T12:29:38.626Z,29.30
2019-01-05T12:31:13.484Z,29.30
2019-01-05T12:32:42.727Z,29.30
2019-01-05T12:34:19.444Z,29.20
2019-01-05T12:36:03.704Z,29.20
2019-01-05T12:37:34.074Z,29.20
2019-01-05T12:39:23.248Z,29.20
2019-01-05T12:41:05.472Z,29.20
2019-01-05T12:42:47.203Z,29.20
2019-01-05T12:44:41.687Z,29.10
2019-01-05T12:46:11.158Z,29.10
2019-01-05T12:47:53.506Z,29.10
2019-01-05T12:49:05.802Z,29.10
2019-01-05T12:50:42.517Z,29.20
2019-01-05T12:52:35.895Z,29.20
2019-01-05T12:54:33.451Z,29.20
2019-01-05T12:56:04.161Z,29.20
2019-01-05T12:57:34.646Z,29.20
2019-01-05T12:59:23.849Z,29.10
2019-01-05T13:01:01.335Z,29.10
2019-01-05T13:02:43.960Z,29.10
2019-01-05T13:04:09.659Z,29.10
2019-01-05T13:05:38.978Z,29.10
2019-01-05T13:07:18.588Z,29.10
2019-01-05T13:08:48.086Z,29.00
2019-01-05T13:10:17.916Z,29.10
2019-01-05T13:11:42.627Z,29.10
2019-01-05T13:13:24.621Z,29.10
2019-01-05T13:15:05.050Z,29.10
2019-01-05T13:16:33.668Z,29.00
2019-01-05T13:17:59.405Z,29.00
2019-01-05T13:19:22.817Z,29.00
2019-01-05T13:21:15.386Z,29.10
2019-01-05T13:22:50.753Z,29.10
2019-01-05T13:24:15.474Z,29.10
2019-01-05T13:26:03.063Z,29.10
2019-01-05T13:27:37.774Z,29.00
2019-01-05T13:29:39.505Z,29.00
2019-01-05T13:31:00.400Z,29.10
2019-01-05T13:33:07.830Z,29.00
2019-01-05T13:35:04.155Z,28.90
2019-01-05T13:36:59.624Z,28.90
2019-01-05T13:38:50.790Z,28.90
2019-01-05T13:40:20.872Z,28.90
2019-01-05T13:41:43.644Z,29.00
2019-01-05T13:43:16.438Z,29.00
2019-01-05T13:44:48.346Z,29.00
2019-01-05T13:46:19.202Z,28.90
2019-01-05T13:48:10.164Z,28.90
2019-01-05T13:49:35.679Z,28.90
2019-01-05T13:51:27.038Z,28.90
2019-01-05T13:53:03.025Z,28.80
2019-01-05T13:54:32.442Z,28.80
2019-01-05T13:55:28.205Z,28.80
2019-01-05T13:56:53.205Z,28.80
2019-01-05T13:57:59.263Z,28.80
2019-01-05T13:58:54.331Z,28.80
2019-01-05T13:59:51.080Z,28.80
2019-01-05T14:00:50.907Z,28.80
2019-01-05T14:01:57.561Z,28.70
2019-01-05T14:03:09.536Z,28.80
2019-01-05T14:04:19.216Z,28.80
2019-01-05T14:05:14.081Z,28.80
2019-01-05T14:06:09.124Z,28.80
2019-01-05T14:07:08.780Z,28.80
2019-01-05T14:08:05.492Z,28.80
2019-01-05T14:09:07.487Z,28.80
2019-01-05T14:10:04.154Z,28.80
2019-01-05T14:11:06.645Z,28.70
2019-01-05T14:12:00.236Z,28.70
2019-01-05T14:12:55.301Z,28.70
2019-01-05T14:13:50.834Z,28.70
2019-01-05T14:14:45.729Z,28.70
2019-01-05T14:15:57.819Z,28.70
2019-01-05T14:16:54.449Z,28.80
2019-01-05T14:17:52.392Z,28.70
2019-01-05T14:18:49.073Z,28.70
2019-01-05T14:19:44.248Z,28.70
2019-01-05T14:20:39.975Z,28.70
2019-01-05T14:21:34.856Z,28.60
2019-01-05T14:22:30.147Z,28.70
2019-01-05T14:23:25.061Z,28.70
2019-01-05T14:24:20.035Z,28.70
2019-01-05T14:25:15.524Z,28.60
2019-01-05T14:26:18.074Z,28.60
2019-01-05T14:27:12.181Z,28.60
2019-01-05T14:28:18.005Z,28.60
2019-01-05T14:29:14.704Z,28.60
2019-01-05T14:30:26.701Z,28.70
2019-01-05T14:31:41.208Z,28.70
2019-01-05T14:32:40.384Z,28.70
2019-01-05T14:33:35.302Z,28.70
2019-01-05T14:34:28.522Z,28.70
2019-01-05T14:35:34.356Z,28.70
2019-01-05T14:36:37.036Z,28.70
2019-01-05T14:37:33.261Z,28.80
2019-01-05T14:38:28.420Z,28.70
2019-01-05T14:39:38.360Z,28.70
2019-01-05T14:40:49.933Z,28.70
2019-01-05T14:41:44.909Z,28.60
2019-01-05T14:42:40.346Z,28.60
2019-01-05T14:43:45.954Z,28.60
2019-01-05T14:44:53.357Z,28.50
2019-01-05T14:45:58.651Z,28.50
2019-01-05T14:46:53.646Z,28.50
2019-01-05T14:48:02.131Z,28.60
2019-01-05T14:48:57.358Z,28.60
2019-01-05T14:49:53.523Z,28.60
2019-01-05T14:51:05.171Z,28.60
2019-01-05T14:52:17.263Z,28.60
2019-01-05T14:53:13.076Z,28.60
2019-01-05T14:54:15.630Z,28.70
2019-01-05T14:55:27.570Z,28.60
2019-01-05T14:56:39.241Z,28.60
2019-01-05T14:57:41.971Z,28.60
2019-01-05T14:58:37.272Z,28.50
2019-01-05T14:59:32.152Z,28.50
2019-01-05T15:00:28.063Z,28.50
2019-01-05T15:01:30.539Z,28.50
2019-01-05T15:02:37.023Z,28.50
2019-01-05T15:03:32.056Z,28.50
2019-01-05T15:04:34.821Z,28.50
2019-01-05T15:05:43.418Z,28.50
2019-01-05T15:06:38.519Z,28.50
2019-01-05T15:07:41.294Z,28.50
2019-01-05T15:08:46.954Z,28.50
2019-01-05T15:09:49.446Z,28.50
2019-01-05T15:10:47.931Z,28.50
2019-01-05T15:11:43.072Z,28.50
2019-01-05T15:12:52.057Z,28.50
2019-01-05T15:13:44.152Z,28.40
2019-01-05T15:14:49.669Z,28.40
2019-01-05T15:15:49.402Z,28.30
2019-01-05T15:17:04.070Z,28.30
2019-01-05T15:18:06.495Z,28.40
2019-01-05T15:19:01.523Z,28.40
2019-01-05T15:19:57.757Z,28.40
2019-01-05T15:20:52.756Z,28.40
2019-01-05T15:21:53.173Z,28.40
2019-01-05T15:23:04.740Z,28.40
2019-01-05T15:24:01.413Z,28.40
2019-01-05T15:24:56.431Z,28.40
2019-01-05T15:26:05.110Z,28.40
2019-01-05T15:26:59.982Z,28.50
2019-01-05T15:27:59.397Z,28.50
2019-01-05T15:28:59.136Z,28.50
2019-01-05T15:30:14.504Z,28.40
2019-01-05T15:31:19.644Z,28.40
2019-01-05T15:32:22.214Z,28.40
2019-01-05T15:33:17.448Z,28.40
2019-01-05T15:34:16.911Z,28.40
2019-01-05T15:35:11.603Z,28.40
2019-01-05T15:36:06.673Z,28.40
2019-01-05T15:37:01.283Z,28.40
2019-01-05T15:38:16.169Z,28.40
2019-01-05T15:39:11.631Z,28.40
2019-01-05T15:40:26.751Z,28.30
2019-01-05T15:41:26.328Z,28.30
2019-01-05T15:42:28.976Z,28.30
2019-01-05T15:43:37.713Z,28.30
2019-01-05T15:44:32.597Z,28.30
2019-01-05T15:45:44.263Z,28.30
2019-01-05T15:46:49.764Z,28.30
2019-01-05T15:47:44.619Z,28.30
2019-01-05T15:48:39.889Z,28.30
2019-01-05T15:49:46.331Z,28.30
2019-01-05T15:50:44.945Z,28.30
2019-01-05T15:51:44.435Z,28.20
2019-01-05T15:52:39.615Z,28.20
2019-01-05T15:53:45.261Z,28.20
2019-01-05T15:54:44.783Z,28.20
2019-01-05T15:55:53.202Z,28.20
2019-01-05T15:56:48.123Z,28.20
2019-01-05T15:57:50.723Z,28.20
2019-01-05T15:58:47.689Z,28.30
2019-01-05T15:59:56.901Z,28.30
2019-01-05T16:00:52.361Z,28.30
2019-01-05T16:01:51.955Z,28.30
2019-01-05T16:02:53.973Z,28.30
2019-01-05T16:03:53.384Z,28.30
2019-01-05T16:04:50.103Z,28.30
2019-01-05T16:05:52.796Z,28.30
2019-01-05T16:06:55.264Z,28.30
2019-01-05T16:07:54.623Z,28.30
2019-01-05T16:09:01.861Z,28.30
2019-01-05T16:10:12.785Z,28.20
2019-01-05T16:11:07.422Z,28.20
2019-01-05T16:12:05.591Z,28.20
2019-01-05T16:13:08.279Z,28.30
2019-01-05T16:14:03.305Z,28.30
2019-01-05T16:14:58.414Z,28.30
2019-01-05T16:15:53.440Z,28.30
2019-01-05T16:16:56.361Z,28.30
2019-01-05T16:17:51.654Z,28.30
2019-01-05T16:19:00.395Z,28.40
2019-01-05T16:20:06.279Z,28.40
2019-01-05T16:21:01.046Z,28.40
2019-01-05T16:21:56.535Z,28.40
2019-01-05T16:22:56.096Z,28.40
2019-01-05T16:24:03.643Z,28.30
2019-01-05T16:25:12.447Z,28.30
2019-01-05T16:26:21.237Z,28.30
2019-01-05T16:27:32.981Z,28.30
2019-01-05T16:28:41.768Z,28.30
2019-01-05T16:29:44.285Z,28.40
2019-01-05T16:30:46.987Z,28.30
2019-01-05T16:31:41.714Z,28.30
2019-01-05T16:32:38.498Z,28.40
2019-01-05T16:33:43.951Z,28.40
2019-01-05T16:34:39.016Z,28.40
2019-01-05T16:35:44.607Z,28.40
2019-01-05T16:36:53.100Z,28.40
2019-01-05T16:37:47.814Z,28.40
2019-01-05T16:38:50.346Z,28.40
2019-01-05T16:39:49.752Z,28.50
2019-01-05T16:40:55.633Z,28.40
2019-01-05T16:42:02.108Z,28.40
2019-01-05T16:42:57.047Z,28.50
2019-01-05T16:43:52.350Z,28.50
2019-01-05T16:44:47.447Z,28.50
2019-01-05T16:45:47.063Z,28.50
2019-01-05T16:46:52.859Z,28.50
2019-01-05T16:47:53.255Z,28.40
2019-01-05T16:48:48.690Z,28.40
2019-01-05T16:49:43.921Z,28.50
2019-01-05T16:50:39.077Z,28.50
2019-01-05T16:51:47.896Z,28.50
2019-01-05T16:52:47.717Z,28.50
2019-01-05T16:53:44.417Z,28.40
2019-01-05T16:54:56.255Z,28.40
2019-01-05T16:55:51.443Z,28.40
2019-01-05T16:56:48.138Z,28.40
2019-01-05T16:57:44.878Z,28.40
2019-01-05T16:58:41.941Z,28.40
2019-01-05T16:59:44.169Z,28.40
2019-01-05T17:00:39.606Z,28.40
2019-01-05T17:01:39.256Z,28.40
2019-01-05T17:02:36.041Z,28.40
2019-01-05T17:03:35.735Z,28.40
2019-01-05T17:04:37.953Z,28.40
2019-01-05T17:05:43.378Z,28.40
2019-01-05T17:06:34.991Z,28.30
2019-01-05T17:07:49.928Z,28.30
2019-01-05T17:08:43.568Z,28.30
2019-01-05T17:09:46.535Z,28.40
2019-01-05T17:10:41.287Z,28.40
2019-01-05T17:11:47.265Z,28.40
2019-01-05T17:12:46.784Z,28.40
2019-01-05T17:13:42.782Z,28.40
2019-01-05T17:14:37.812Z,28.40
2019-01-05T17:15:34.892Z,28.40
2019-01-05T17:16:41.054Z,28.40
2019-01-05T17:17:37.692Z,28.40
2019-01-05T17:18:33.122Z,28.30
2019-01-05T17:19:47.713Z,28.30
2019-01-05T17:20:53.184Z,28.20
2019-01-05T17:22:01.728Z,28.30
2019-01-05T17:22:56.977Z,28.30
2019-01-05T17:23:51.708Z,28.30
2019-01-05T17:24:54.618Z,28.30
2019-01-05T17:25:49.390Z,28.30
2019-01-05T17:26:49.092Z,28.30
2019-01-05T17:27:45.782Z,28.30
2019-01-05T17:28:40.768Z,28.30
2019-01-05T17:29:41.635Z,28.30
2019-01-05T17:30:38.221Z,28.30
2019-01-05T17:31:33.536Z,28.30
2019-01-05T17:32:28.668Z,28.30
2019-01-05T17:33:28.946Z,28.30
2019-01-05T17:34:37.999Z,28.30
2019-01-05T17:35:33.015Z,28.30
2019-01-05T17:36:35.779Z,28.30
2019-01-05T17:37:50.495Z,28.30
2019-01-05T17:38:56.304Z,28.20
2019-01-05T17:39:55.979Z,28.20
2019-01-05T17:40:52.207Z,28.10
2019-01-05T17:41:50.907Z,28.10
2019-01-05T17:42:50.590Z,28.10
2019-01-05T17:43:46.197Z,28.10
2019-01-05T17:44:41.875Z,28.10
2019-01-05T17:45:38.548Z,28.20
2019-01-05T17:46:33.677Z,28.20
2019-01-05T17:47:33.130Z,28.20
2019-01-05T17:48:28.226Z,28.10
2019-01-05T17:49:23.173Z,28.10
2019-01-05T17:50:19.912Z,28.20
2019-01-05T17:51:19.679Z,28.10
2019-01-05T17:52:14.789Z,28.20
2019-01-05T17:53:10.132Z,28.20
2019-01-05T17:54:05.040Z,28.20
2019-01-05T17:55:16.850Z,28.20
2019-01-05T17:56:19.155Z,28.20